Topsail Beach, North Carolina
Current Conditions -  °F | °C
As of 5:56 PM on Saturday 25 Oct 2014 (Local Time) from KNCA Reporting Station
Clear Clear  
Wind Chill: 66°   Ceiling: Unl
Heat Index: 66°   Visibility: 10mi
Dew Point: 53°   Wind: 8mph
Humidity: 63%   Direction: 180°S
Pressure: 29.88"   Gusts: NA
Location:  34.4895°N, 77.514°W
Report Text: KNCA 252156Z AUTO 18007KT 10SM CLR 19/12 A2988 RMK AO2 SLP122 T01890117
Loading
Personal Weather Stations






























Interactive Weather Map New forecast layout! Learn more

10-Day Weather Forecast

Advertisements
Track Severe Weather on mobile